Time;durP1;ratioP1;P1;durP2;ratioP2;P2;SDS_P1;SDS_P2;PMS_P1;PMS_P2;Temp;Humidity;BMP_temperature;BMP_pressure;BME280_temperature;BME280_humidity;BME280_pressure;Samples;Min_cycle;Max_cycle;Signal;HPM_P1;HPM_P2
2024/02/26 00:01:59;;;;;;;7.47;4.25;;;;;;;0.26;59.03;100094.47;5034052;28;20048;-61
2024/02/26 00:04:25;;;;;;;6.30;4.03;;;;;;;0.32;58.88;100100.84;5033647;28;20056;-64
2024/02/26 00:06:51;;;;;;;7.05;4.25;;;;;;;0.38;58.74;100095.88;5049061;28;20065;-63
2024/02/26 00:09:17;;;;;;;6.82;3.60;;;;;;;0.42;57.71;100106.81;5032285;28;20046;-63
2024/02/26 00:11:42;;;;;;;6.50;4.13;;;;;;;0.50;58.89;100091.22;5032057;28;20057;-60
2024/02/26 00:14:08;;;;;;;7.88;4.10;;;;;;;0.60;58.12;100094.50;5033888;28;20096;-61
2024/02/26 00:16:34;;;;;;;8.35;4.65;;;;;;;0.67;57.16;100090.28;5031885;28;20549;-62
2024/02/26 00:19:00;;;;;;;9.20;4.60;;;;;;;0.63;56.62;100088.16;5033126;28;20068;-62
2024/02/26 00:21:26;;;;;;;6.50;4.30;;;;;;;0.40;56.34;100087.88;5033355;28;20495;-63
2024/02/26 00:23:53;;;;;;;8.30;4.60;;;;;;;0.38;56.56;100087.19;5033884;28;20056;-63
2024/02/26 00:26:19;;;;;;;7.00;3.88;;;;;;;0.25;56.15;100085.00;5048660;28;20055;-62
2024/02/26 00:28:44;;;;;;;6.68;3.80;;;;;;;0.21;57.34;100083.69;5032347;28;20045;-62
2024/02/26 00:31:10;;;;;;;4.95;3.83;;;;;;;0.29;55.51;100094.16;5030896;28;20053;-63
2024/02/26 00:33:36;;;;;;;7.47;4.00;;;;;;;0.33;56.29;100092.91;5033622;28;20045;-63
2024/02/26 00:36:01;;;;;;;6.65;3.92;;;;;;;0.31;56.34;100087.00;5031820;28;20474;-63
2024/02/26 00:38:27;;;;;;;8.68;4.25;;;;;;;0.29;55.76;100091.56;5032090;28;20049;-62
2024/02/26 00:40:53;;;;;;;9.20;4.35;;;;;;;0.36;57.16;100087.38;5031562;28;20034;-61
2024/02/26 00:43:19;;;;;;;10.13;4.43;;;;;;;0.36;56.49;100079.56;5031805;28;20084;-60
2024/02/26 00:45:46;;;;;;;7.32;3.85;;;;;;;0.43;56.69;100082.34;5032950;28;20045;-62
2024/02/26 00:48:13;;;;;;;6.85;4.30;;;;;;;0.37;55.68;100088.19;5031811;28;20091;-63
2024/02/26 00:50:39;;;;;;;8.13;3.70;;;;;;;0.40;56.60;100072.22;5048211;28;20140;-62
2024/02/26 00:53:05;;;;;;;5.70;3.90;;;;;;;0.41;56.31;100072.09;5033065;28;20103;-63
2024/02/26 00:55:31;;;;;;;6.25;3.92;;;;;;;0.43;57.23;100083.16;5031643;28;20034;-62
2024/02/26 00:57:56;;;;;;;7.93;3.78;;;;;;;0.40;56.21;100075.66;5031309;28;20144;-63
2024/02/26 01:00:22;;;;;;;6.28;3.78;;;;;;;0.39;55.67;100076.63;5031457;28;20037;-62
2024/02/26 01:02:48;;;;;;;6.57;4.05;;;;;;;0.43;56.27;100072.72;5047939;28;20049;-63
2024/02/26 01:05:14;;;;;;;8.88;4.13;;;;;;;0.45;55.07;100068.19;5032960;28;20515;-64
2024/02/26 01:07:40;;;;;;;7.35;4.10;;;;;;;0.47;55.87;100078.44;5047918;28;20065;-62
2024/02/26 01:10:06;;;;;;;10.57;4.03;;;;;;;0.37;55.99;100064.72;5031358;28;20541;-63
2024/02/26 01:12:35;;;;;;;6.03;3.75;;;;;;;0.37;55.62;100067.31;5047719;28;20042;-61
2024/02/26 01:15:03;;;;;;;5.70;3.22;;;;;;;0.28;55.07;100079.50;5032340;28;20117;-62
2024/02/26 01:17:29;;;;;;;6.60;3.30;;;;;;;0.17;55.08;100069.31;5032535;28;20046;-63
2024/02/26 01:19:55;;;;;;;6.50;3.92;;;;;;;0.32;56.49;100069.56;5032547;28;20095;-61
2024/02/26 01:22:21;;;;;;;7.10;4.28;;;;;;;0.35;56.74;100070.06;5030903;28;20499;-62
2024/02/26 01:24:46;;;;;;;9.90;4.13;;;;;;;0.47;56.32;100065.41;5030121;28;20570;-64
2024/02/26 01:27:14;;;;;;;5.32;3.92;;;;;;;0.48;54.81;100066.25;5032057;28;20053;-62
2024/02/26 01:29:40;;;;;;;6.13;3.70;;;;;;;0.43;56.33;100061.47;5032214;28;20045;-62
2024/02/26 01:32:06;;;;;;;6.47;4.03;;;;;;;0.54;56.11;100068.22;5032063;28;20045;-62
2024/02/26 01:34:31;;;;;;;6.80;4.28;;;;;;;0.47;55.67;100072.41;5032340;28;20133;-63
2024/02/26 01:36:57;;;;;;;8.45;4.07;;;;;;;0.38;56.01;100071.56;5030621;28;20041;-62
2024/02/26 01:39:23;;;;;;;14.18;4.00;;;;;;;0.39;55.92;100070.59;5030387;28;20049;-61
2024/02/26 01:41:49;;;;;;;5.65;3.83;;;;;;;0.49;55.27;100073.91;5032191;28;20041;-63
2024/02/26 01:44:15;;;;;;;5.32;3.80;;;;;;;0.54;54.90;100063.00;5031663;28;20124;-63
2024/02/26 01:46:40;;;;;;;7.00;4.03;;;;;;;0.34;54.69;100062.41;5031953;28;20499;-62
2024/02/26 01:49:08;;;;;;;7.22;3.63;;;;;;;0.25;54.57;100071.16;5013971;28;20052;-62
2024/02/26 01:51:35;;;;;;;5.72;3.50;;;;;;;0.18;54.95;100063.97;5030918;28;20041;-63
2024/02/26 01:54:02;;;;;;;5.57;3.65;;;;;;;0.13;55.47;100063.59;5030295;28;20104;-62
2024/02/26 01:56:31;;;;;;;8.00;4.50;;;;;;;0.17;55.97;100053.66;5030775;28;20037;-64
2024/02/26 01:59:00;;;;;;;5.57;3.78;;;;;;;0.14;55.00;100052.19;5029968;28;20488;-61
2024/02/26 02:01:27;;;;;;;5.50;3.58;;;;;;;0.20;56.38;100058.56;5030361;28;20529;-62
2024/02/26 02:03:54;;;;;;;5.65;3.97;;;;;;;0.11;55.42;100051.69;5017702;28;20447;-61
2024/02/26 02:06:20;;;;;;;6.38;3.83;;;;;;;0.06;56.20;100053.91;5011866;28;20042;-62
2024/02/26 02:08:46;;;;;;;5.18;3.65;;;;;;;0.08;55.54;100047.59;5011760;28;20053;-64
2024/02/26 02:11:12;;;;;;;7.13;3.92;;;;;;;0.27;56.41;100043.16;5011750;28;20037;-64
2024/02/26 02:13:38;;;;;;;4.97;3.60;;;;;;;0.32;55.25;100044.31;5011830;28;20510;-61
2024/02/26 02:16:04;;;;;;;6.32;3.88;;;;;;;0.38;55.11;100053.31;5024301;28;20049;-64
2024/02/26 02:18:29;;;;;;;5.00;3.08;;;;;;;0.33;54.36;100050.38;5046785;28;20087;-64
2024/02/26 02:20:56;;;;;;;9.95;3.63;;;;;;;0.25;54.18;100056.34;5030136;28;20045;-64
2024/02/26 02:23:22;;;;;;;9.07;3.65;;;;;;;0.16;55.11;100052.84;5030149;28;20454;-61
2024/02/26 02:25:48;;;;;;;6.72;3.63;;;;;;;0.27;55.07;100045.75;5031465;28;20056;-64
2024/02/26 02:28:13;;;;;;;13.65;3.88;;;;;;;0.32;55.42;100053.91;5031445;28;20041;-62
2024/02/26 02:30:39;;;;;;;6.07;3.42;;;;;;;0.21;55.90;100047.19;5030196;28;20041;-63
2024/02/26 02:33:05;;;;;;;7.57;3.55;;;;;;;0.24;55.57;100039.06;5031487;28;20060;-62
2024/02/26 02:35:30;;;;;;;10.52;3.47;;;;;;;0.07;54.70;100045.97;5047725;28;20069;-63
2024/02/26 02:37:57;;;;;;;5.68;2.80;;;;;;;0.05;54.94;100047.09;5034167;28;20099;-62
2024/02/26 02:40:22;;;;;;;6.45;3.90;;;;;;;0.14;56.19;100041.75;5035400;28;20049;-63
2024/02/26 02:42:48;;;;;;;6.10;3.22;;;;;;;0.15;55.15;100046.03;5035523;28;20099;-62
2024/02/26 02:45:14;;;;;;;6.30;3.25;;;;;;;0.10;54.43;100045.66;5033821;28;20107;-63
2024/02/26 02:47:39;;;;;;;4.85;2.95;;;;;;;0.15;55.37;100042.59;5035498;28;20076;-60
2024/02/26 02:50:06;;;;;;;6.80;3.22;;;;;;;0.13;55.38;100039.31;5035038;28;20072;-63
2024/02/26 02:52:31;;;;;;;6.70;3.22;;;;;;;0.11;55.35;100044.66;5035414;28;20045;-62
2024/02/26 02:54:58;;;;;;;5.70;3.47;;;;;;;0.15;55.76;100037.38;5035028;28;20055;-63
2024/02/26 02:57:24;;;;;;;7.10;3.80;;;;;;;0.10;54.58;100037.84;5050473;28;20311;-62
2024/02/26 02:59:49;;;;;;;6.72;3.10;;;;;;;0.13;54.44;100037.53;5034775;28;20140;-65
2024/02/26 03:02:15;;;;;;;6.47;3.33;;;;;;;0.08;54.78;100044.16;5035167;28;20550;-62
2024/02/26 03:04:40;;;;;;;5.00;3.20;;;;;;;0.07;53.92;100035.53;5034931;28;20503;-63
2024/02/26 03:07:06;;;;;;;5.20;3.05;;;;;;;0.11;54.35;100036.03;5034448;28;20511;-63
2024/02/26 03:09:32;;;;;;;8.50;3.40;;;;;;;-0.05;54.97;100031.56;5017096;28;20041;-63
2024/02/26 03:11:57;;;;;;;4.75;2.83;;;;;;;0.07;54.75;100032.13;5034476;28;20037;-63
2024/02/26 03:14:23;;;;;;;5.97;3.30;;;;;;;0.11;54.09;100041.25;5033614;28;20060;-64
2024/02/26 03:16:49;;;;;;;5.10;2.90;;;;;;;0.09;55.07;100035.38;5034430;28;20442;-64
2024/02/26 03:19:18;;;;;;;6.00;3.42;;;;;;;0.13;55.38;100034.09;5034778;28;20057;-64
2024/02/26 03:21:43;;;;;;;7.78;2.92;;;;;;;0.06;54.77;100035.69;5016722;28;20041;-61
2024/02/26 03:24:10;;;;;;;5.03;2.90;;;;;;;0.02;54.66;100022.13;5033982;28;20091;-62
2024/02/26 03:26:37;;;;;;;4.40;2.85;;;;;;;0.04;54.82;100029.81;5034760;28;20668;-62
2024/02/26 03:29:02;;;;;;;9.95;3.63;;;;;;;-0.05;54.02;100028.94;5033391;28;20054;-65
2024/02/26 03:31:28;;;;;;;4.88;3.33;;;;;;;-0.09;54.07;100025.84;5034267;28;20041;-64
2024/02/26 03:33:54;;;;;;;4.43;2.90;;;;;;;-0.12;54.01;100022.69;5034665;28;20143;-63
2024/02/26 03:36:21;;;;;;;5.35;3.30;;;;;;;-0.19;54.35;100024.28;5049647;28;20048;-64
2024/02/26 03:38:47;;;;;;;4.20;2.80;;;;;;;-0.26;54.33;100032.72;5030128;28;20056;-62
2024/02/26 03:41:13;;;;;;;5.90;3.00;;;;;;;-0.35;54.77;100019.78;5014550;28;20081;-63
2024/02/26 03:43:39;;;;;;;6.60;3.03;;;;;;;-0.20;55.15;100031.28;5014780;28;20069;-62
2024/02/26 03:46:09;;;;;;;5.28;3.08;;;;;;;-0.15;55.28;100023.81;5013093;28;20178;-61
2024/02/26 03:48:35;;;;;;;6.00;2.90;;;;;;;-0.07;54.64;100026.47;5011734;28;20397;-61
2024/02/26 03:51:01;;;;;;;7.05;3.05;;;;;;;-0.04;54.05;100030.56;5013037;28;20049;-63
2024/02/26 03:53:26;;;;;;;4.93;2.85;;;;;;;-0.20;54.24;100022.66;4996212;28;20488;-63
2024/02/26 03:55:53;;;;;;;5.90;2.95;;;;;;;-0.25;54.66;100025.69;5014224;28;20072;-64
2024/02/26 03:58:18;;;;;;;5.70;3.10;;;;;;;-0.29;54.79;100025.19;5014230;28;20038;-62
2024/02/26 04:00:44;;;;;;;6.53;3.25;;;;;;;-0.36;54.48;100028.53;5012895;28;20050;-65
2024/02/26 04:03:10;;;;;;;3.83;2.75;;;;;;;-0.26;55.61;100024.88;5013879;28;20557;-61
2024/02/26 04:05:35;;;;;;;5.22;3.08;;;;;;;-0.19;55.53;100024.28;5013871;28;20120;-64
2024/02/26 04:08:03;;;;;;;5.15;2.90;;;;;;;-0.21;54.49;100024.41;5013667;28;20085;-62
2024/02/26 04:10:29;;;;;;;7.82;2.80;;;;;;;-0.29;54.34;100027.00;5012813;28;20152;-65
2024/02/26 04:12:55;;;;;;;4.03;2.75;;;;;;;-0.31;54.63;100024.53;5013777;28;20146;-62
2024/02/26 04:15:20;;;;;;;5.82;3.30;;;;;;;-0.27;56.27;100025.84;5003279;28;20033;-64
2024/02/26 04:17:46;;;;;;;4.07;2.33;;;;;;;-0.16;56.05;100023.97;5031464;28;20421;-62
2024/02/26 04:20:14;;;;;;;5.88;2.90;;;;;;;-0.22;55.20;100021.97;5032686;28;20041;-64
2024/02/26 04:22:40;;;;;;;5.93;2.90;;;;;;;-0.28;54.66;100026.81;5031892;28;20049;-63
2024/02/26 04:25:05;;;;;;;5.60;3.35;;;;;;;-0.30;54.77;100020.13;5013745;28;20418;-64
2024/02/26 04:27:31;;;;;;;6.25;3.17;;;;;;;-0.26;54.49;100022.28;5013555;28;20137;-63
2024/02/26 04:29:57;;;;;;;6.05;3.08;;;;;;;-0.33;55.30;100016.03;5022005;28;20037;-62
2024/02/26 04:32:23;;;;;;;5.75;3.13;;;;;;;-0.48;55.56;100022.75;5033182;28;20045;-62
2024/02/26 04:34:48;;;;;;;5.43;2.97;;;;;;;-0.53;55.30;100025.81;5032990;28;20037;-64
2024/02/26 04:37:14;;;;;;;5.35;3.20;;;;;;;-0.53;54.92;100022.38;5033196;28;20057;-64
2024/02/26 04:39:40;;;;;;;6.95;3.10;;;;;;;-0.52;55.04;100019.63;5047994;28;20041;-63
2024/02/26 04:42:06;;;;;;;6.30;3.25;;;;;;;-0.50;55.59;100020.31;5032054;28;20048;-67
2024/02/26 04:44:32;;;;;;;4.82;3.10;;;;;;;-0.41;56.29;100034.22;5031611;28;20041;-64
2024/02/26 04:46:58;;;;;;;6.72;3.17;;;;;;;-0.33;56.41;100036.06;5033090;28;20061;-64
2024/02/26 04:49:24;;;;;;;5.95;3.22;;;;;;;-0.21;56.06;100026.22;5024570;28;20046;-62
2024/02/26 04:51:49;;;;;;;5.93;3.08;;;;;;;-0.33;56.07;100026.44;5012750;28;20526;-63
2024/02/26 04:54:15;;;;;;;5.13;2.80;;;;;;;-0.31;55.97;100016.69;5012299;28;20061;-65
2024/02/26 04:56:41;;;;;;;4.88;3.15;;;;;;;-0.30;55.79;100025.34;5011474;28;20038;-62
2024/02/26 04:59:07;;;;;;;5.75;3.65;;;;;;;-0.32;56.19;100016.88;5012804;28;20046;-64
2024/02/26 05:01:32;;;;;;;6.75;3.13;;;;;;;-0.32;54.93;100025.50;5013151;28;20049;-65
2024/02/26 05:03:58;;;;;;;4.70;2.88;;;;;;;-0.27;56.76;100025.03;5011524;28;20050;-64
2024/02/26 05:06:24;;;;;;;8.32;3.17;;;;;;;-0.32;56.13;100017.69;5010589;28;20038;-63
2024/02/26 05:08:50;;;;;;;7.07;3.60;;;;;;;-0.39;55.88;100010.63;5010701;28;20061;-62
2024/02/26 05:11:16;;;;;;;5.55;3.38;;;;;;;-0.32;55.63;100015.06;5010799;28;20065;-64
2024/02/26 05:13:43;;;;;;;5.65;3.60;;;;;;;-0.29;56.06;100013.97;5012986;28;20054;-63
2024/02/26 05:16:09;;;;;;;5.82;3.60;;;;;;;-0.41;55.84;100015.16;5025959;28;20048;-64
2024/02/26 05:18:34;;;;;;;6.72;3.42;;;;;;;-0.41;56.41;100016.00;5030866;28;20426;-66
2024/02/26 05:21:00;;;;;;;7.85;3.80;;;;;;;-0.45;56.31;100017.25;5013955;28;20045;-65
2024/02/26 05:23:26;;;;;;;10.98;3.88;;;;;;;-0.38;56.51;100005.28;5030381;28;20049;-63
2024/02/26 05:25:52;;;;;;;7.13;4.05;;;;;;;-0.31;56.28;100002.88;5019826;28;20041;-62
2024/02/26 05:28:20;;;;;;;7.70;3.92;;;;;;;-0.33;55.96;100015.22;5012339;28;20050;-63
2024/02/26 05:30:46;;;;;;;5.93;3.90;;;;;;;-0.29;56.45;100012.16;5010909;28;20157;-63
2024/02/26 05:33:12;;;;;;;4.47;3.25;;;;;;;-0.23;56.52;100013.34;5010763;28;20136;-62
2024/02/26 05:35:38;;;;;;;9.48;3.50;;;;;;;-0.21;56.12;100015.78;5010980;28;20091;-63
2024/02/26 05:38:04;;;;;;;8.05;3.72;;;;;;;-0.18;56.12;100002.44;5011143;28;20050;-62
2024/02/26 05:40:31;;;;;;;7.72;4.00;;;;;;;-0.15;56.23;100010.78;5010252;28;20049;-63
2024/02/26 05:42:56;;;;;;;6.88;3.63;;;;;;;-0.16;56.53;100011.75;5011741;28;20053;-63
2024/02/26 05:45:22;;;;;;;6.93;3.50;;;;;;;-0.25;55.88;100005.66;5010987;28;20366;-63
2024/02/26 05:47:49;;;;;;;5.88;3.88;;;;;;;-0.10;57.23;100008.53;5012163;28;20053;-63
2024/02/26 05:50:15;;;;;;;11.55;3.97;;;;;;;-0.06;56.55;100012.50;5012348;28;20411;-63
2024/02/26 05:52:41;;;;;;;6.65;3.70;;;;;;;-0.06;56.15;100016.88;5011914;28;20050;-63
2024/02/26 05:55:07;;;;;;;6.50;3.45;;;;;;;-0.17;56.21;100011.94;5011870;28;20096;-64
2024/02/26 05:57:36;;;;;;;6.40;3.85;;;;;;;-0.20;56.45;100015.66;5010719;28;20096;-64
2024/02/26 06:00:03;;;;;;;7.78;3.95;;;;;;;-0.10;56.32;100023.38;5010420;28;20076;-64
2024/02/26 06:02:37;;;;;;;7.63;3.83;;;;;;;-0.08;56.10;100011.81;5008951;28;20572;-62
2024/02/26 06:05:03;;;;;;;9.02;4.38;;;;;;;0.08;57.20;100018.09;5031723;28;20057;-63
2024/02/26 06:07:28;;;;;;;9.13;4.43;;;;;;;0.11;56.25;100012.56;5012239;28;20057;-63
2024/02/26 06:09:54;;;;;;;8.85;4.13;;;;;;;0.35;56.64;100023.13;5010982;28;20046;-63
2024/02/26 06:12:20;;;;;;;9.48;4.63;;;;;;;0.45;56.80;100023.84;5027205;28;20049;-63
2024/02/26 06:14:45;;;;;;;6.65;4.05;;;;;;;0.68;56.05;100029.31;5031305;28;20037;-64
2024/02/26 06:17:11;;;;;;;8.60;4.55;;;;;;;0.84;55.94;100035.56;5045916;28;20136;-64
2024/02/26 06:19:37;;;;;;;7.10;4.70;;;;;;;0.86;55.92;100033.63;5031023;28;20045;-64
2024/02/26 06:22:03;;;;;;;12.48;5.25;;;;;;;0.93;55.08;100042.44;5024196;28;20092;-64
2024/02/26 06:24:28;;;;;;;8.13;4.28;;;;;;;0.78;54.65;100037.00;5010173;28;20081;-66
2024/02/26 06:26:54;;;;;;;10.00;4.38;;;;;;;0.69;55.50;100032.75;5024601;28;20054;-65
2024/02/26 06:29:19;;;;;;;8.45;4.65;;;;;;;0.61;54.89;100030.09;5031519;28;20037;-65
2024/02/26 06:31:45;;;;;;;8.07;4.82;;;;;;;0.59;55.19;100032.03;5029357;28;20468;-63
2024/02/26 06:34:11;;;;;;;7.25;4.75;;;;;;;0.68;56.27;100039.75;5029984;28;20045;-64
2024/02/26 06:36:37;;;;;;;9.65;4.93;;;;;;;0.83;55.44;100029.53;5030944;28;20041;-63
2024/02/26 06:39:02;;;;;;;6.10;4.00;;;;;;;0.74;55.03;100033.09;5013644;28;20045;-63
2024/02/26 06:41:29;;;;;;;7.85;4.57;;;;;;;0.92;56.60;100035.59;5036648;28;20084;-65
2024/02/26 06:43:55;;;;;;;9.70;5.10;;;;;;;1.06;55.04;100036.75;5031154;28;20041;-63
2024/02/26 06:46:21;;;;;;;9.90;4.75;;;;;;;1.03;55.20;100031.84;5046364;28;20056;-63
2024/02/26 06:48:48;;;;;;;9.43;4.50;;;;;;;1.05;54.89;100012.44;5031170;28;20187;-64
2024/02/26 06:51:13;;;;;;;9.52;4.85;;;;;;;1.02;54.62;100025.81;5013405;28;20057;-64
2024/02/26 06:53:39;;;;;;;10.40;5.38;;;;;;;1.28;56.22;100027.50;5019347;28;20050;-64
2024/02/26 06:56:05;;;;;;;8.15;4.80;;;;;;;1.13;55.35;100022.91;5010012;28;20038;-65
2024/02/26 06:58:31;;;;;;;11.90;5.20;;;;;;;0.94;55.68;100017.16;5011318;28;20049;-63
2024/02/26 07:00:56;;;;;;;8.13;4.88;;;;;;;0.93;55.00;100025.97;5010818;28;20052;-62
2024/02/26 07:03:25;;;;;;;9.40;5.13;;;;;;;0.92;55.56;100027.78;5011057;28;20042;-63
2024/02/26 07:05:51;;;;;;;10.63;5.07;;;;;;;0.99;55.48;100028.75;5015961;28;20044;-60
2024/02/26 07:08:18;;;;;;;9.90;5.35;;;;;;;0.96;55.06;100025.66;5029363;28;20053;-62
2024/02/26 07:10:44;;;;;;;8.82;4.68;;;;;;;0.99;56.00;100020.91;5029412;28;20041;-63
2024/02/26 07:13:10;;;;;;;6.88;4.85;;;;;;;0.84;54.61;100031.16;5030278;28;20071;-61
2024/02/26 07:15:36;;;;;;;7.47;4.63;;;;;;;0.92;54.62;100024.34;5012613;28;20080;-63
2024/02/26 07:18:05;;;;;;;10.52;4.93;;;;;;;1.11;56.28;100032.69;5030744;28;20037;-61
2024/02/26 07:20:30;;;;;;;8.50;5.22;;;;;;;1.09;55.99;100023.41;4996632;28;20132;-61
2024/02/26 07:22:57;;;;;;;11.27;5.50;;;;;;;1.24;54.80;100039.28;5034192;28;20471;-63
2024/02/26 07:25:24;;;;;;;10.13;5.20;;;;;;;1.23;53.92;100022.75;5033958;28;20052;-63
2024/02/26 07:27:50;;;;;;;11.32;5.63;;;;;;;1.17;55.06;100023.41;5034231;28;20115;-60
2024/02/26 07:30:16;;;;;;;13.50;5.32;;;;;;;1.33;54.86;100025.25;5033609;28;20044;-64
2024/02/26 07:32:43;;;;;;;10.02;5.35;;;;;;;1.47;55.37;100026.38;5032960;28;20042;-62
2024/02/26 07:35:08;;;;;;;9.10;5.38;;;;;;;1.72;53.60;100037.66;5015852;28;20029;-65
2024/02/26 07:37:34;;;;;;;13.00;5.28;;;;;;;1.92;53.72;100030.31;5034213;28;20578;-64
2024/02/26 07:40:00;;;;;;;10.27;4.75;;;;;;;1.77;52.82;100035.38;5025107;28;20050;-63
2024/02/26 07:42:26;;;;;;;13.07;5.63;;;;;;;1.68;52.93;100028.53;5012804;28;20119;-64
2024/02/26 07:44:52;;;;;;;10.85;5.38;;;;;;;1.80;53.33;100025.41;5012469;28;20120;-64
2024/02/26 07:47:18;;;;;;;11.05;5.80;;;;;;;1.84;53.48;100022.47;5031016;28;20402;-65
2024/02/26 07:49:44;;;;;;;7.32;4.82;;;;;;;1.93;52.95;100026.69;5032519;28;20042;-65
2024/02/26 07:52:10;;;;;;;15.18;5.30;;;;;;;2.06;53.20;100019.16;5031991;28;20056;-63
2024/02/26 07:54:36;;;;;;;8.23;4.90;;;;;;;2.22;53.67;100021.72;5033615;28;20041;-64
2024/02/26 07:57:05;;;;;;;14.57;5.88;;;;;;;2.18;52.93;100011.78;5033425;28;20176;-63
2024/02/26 07:59:31;;;;;;;10.90;5.13;;;;;;;2.10;52.15;100017.84;5033668;28;20136;-64
2024/02/26 08:01:57;;;;;;;9.50;5.13;;;;;;;2.04;53.11;100015.91;5024848;28;20076;-63
2024/02/26 08:04:23;;;;;;;11.43;5.65;;;;;;;1.92;54.37;100014.63;5012885;28;20092;-63
2024/02/26 08:06:49;;;;;;;10.00;5.57;;;;;;;1.86;53.87;100010.84;5028042;28;20053;-63
2024/02/26 08:09:15;;;;;;;12.57;5.47;;;;;;;1.86;53.69;100013.47;5032889;28;20045;-63
2024/02/26 08:11:40;;;;;;;12.07;5.43;;;;;;;1.57;53.34;100017.41;5029550;28;20049;-64
2024/02/26 08:14:06;;;;;;;14.45;5.90;;;;;;;1.64;54.58;100014.13;5033927;28;20037;-63
2024/02/26 08:16:32;;;;;;;13.45;5.57;;;;;;;1.68;54.35;100008.44;5047533;28;20045;-63
2024/02/26 08:18:57;;;;;;;10.18;5.28;;;;;;;1.62;54.38;99992.56;5050273;28;20530;-63
2024/02/26 08:21:23;;;;;;;10.35;5.25;;;;;;;1.73;54.21;100003.50;5035697;28;20098;-65
2024/02/26 08:23:49;;;;;;;10.52;5.35;;;;;;;1.84;54.92;100004.97;5036161;28;20136;-64
2024/02/26 08:26:14;;;;;;;7.50;4.65;;;;;;;1.81;53.61;100005.31;5033992;28;20034;-64
2024/02/26 08:28:40;;;;;;;17.75;5.95;;;;;;;1.72;54.27;100008.91;5034156;28;20054;-64
2024/02/26 08:31:06;;;;;;;8.45;5.63;;;;;;;1.67;53.74;100003.34;5035291;28;20045;-64
2024/02/26 08:33:33;;;;;;;10.48;5.47;;;;;;;1.84;53.75;99998.94;5032735;28;20045;-63
2024/02/26 08:35:59;;;;;;;9.95;5.50;;;;;;;2.04;53.48;100002.81;5031681;28;20112;-64
2024/02/26 08:38:25;;;;;;;11.25;5.18;;;;;;;1.96;53.29;100006.25;5013320;28;20046;-63
2024/02/26 08:40:51;;;;;;;11.70;6.50;;;;;;;2.18;53.64;100003.94;5018125;28;20042;-64
2024/02/26 08:43:17;;;;;;;15.48;5.68;;;;;;;2.35;53.03;99994.22;5033055;28;20121;-63
2024/02/26 08:45:43;;;;;;;16.05;6.18;;;;;;;2.54;52.17;99987.78;5032669;28;20566;-62
2024/02/26 08:48:09;;;;;;;13.73;6.38;;;;;;;2.70;52.25;99995.53;5032630;28;20132;-63
2024/02/26 08:50:35;;;;;;;12.43;6.18;;;;;;;2.74;53.66;99996.84;5032772;28;20037;-62
2024/02/26 08:53:03;;;;;;;10.55;6.07;;;;;;;2.64;52.33;99991.00;5014509;28;20515;-63
2024/02/26 08:55:29;;;;;;;11.02;6.00;;;;;;;2.55;52.07;99989.41;5031328;28;20041;-64
2024/02/26 08:57:54;;;;;;;10.68;6.28;;;;;;;2.64;52.02;99991.00;5032537;28;20049;-65
2024/02/26 09:00:20;;;;;;;15.80;6.68;;;;;;;2.74;51.62;99994.22;5047657;28;20053;-65
2024/02/26 09:02:49;;;;;;;9.82;6.70;;;;;;;3.01;52.44;99997.34;5022105;28;20057;-61
2024/02/26 09:05:15;;;;;;;11.07;6.60;;;;;;;3.23;52.11;99991.28;4995067;28;20050;-65
2024/02/26 09:07:40;;;;;;;9.70;5.85;;;;;;;3.19;51.21;99990.84;5032269;28;20067;-64
2024/02/26 09:10:09;;;;;;;13.25;6.38;;;;;;;3.26;51.64;99996.19;5032531;28;20029;-66
2024/02/26 09:12:34;;;;;;;14.88;6.63;;;;;;;3.30;51.05;99992.25;5032681;28;20140;-65
2024/02/26 09:15:00;;;;;;;12.45;6.38;;;;;;;3.27;50.90;99987.34;5032233;28;20037;-66
2024/02/26 09:17:25;;;;;;;13.68;5.65;;;;;;;3.13;50.22;99985.47;5029879;28;20048;-64
2024/02/26 09:19:52;;;;;;;12.43;6.30;;;;;;;2.89;51.10;99989.88;5012689;28;20104;-64
2024/02/26 09:22:18;;;;;;;12.23;6.63;;;;;;;2.93;51.03;99985.94;5010913;28;20096;-65
2024/02/26 09:28:17;;;;;;;15.43;7.13;;;;;;;3.19;50.80;99995.25;5045228;28;20088;-65
2024/02/26 09:30:45;;;;;;;13.38;6.15;;;;;;;3.21;50.44;100001.16;5014068;28;20041;-63
2024/02/26 09:33:11;;;;;;;10.52;5.50;;;;;;;3.31;51.66;99996.47;5015181;28;20112;-65
2024/02/26 09:35:37;;;;;;;12.73;5.55;;;;;;;3.51;50.12;99998.63;5010811;28;20487;-65
2024/02/26 09:38:03;;;;;;;8.10;5.60;;;;;;;3.39;49.61;99985.94;5011650;28;20050;-63
2024/02/26 09:40:29;;;;;;;11.70;5.88;;;;;;;3.36;50.49;99994.16;5010750;28;20051;-62
2024/02/26 09:43:01;;;;;;;8.75;6.05;;;;;;;3.36;50.58;99986.31;5008127;28;20211;-62
2024/02/26 09:45:28;;;;;;;9.57;5.38;;;;;;;3.24;49.89;99986.91;5031132;28;20037;-62
2024/02/26 09:47:56;;;;;;;10.85;5.72;;;;;;;3.06;50.03;99989.78;5030773;28;20068;-62
2024/02/26 09:50:24;;;;;;;11.25;5.65;;;;;;;3.12;51.26;99991.72;5030678;28;20503;-64
2024/02/26 09:52:51;;;;;;;11.55;5.32;;;;;;;3.27;50.71;99987.34;5013722;28;20038;-62
2024/02/26 09:55:18;;;;;;;8.73;4.82;;;;;;;3.32;50.58;99990.25;5031792;28;20038;-61
2024/02/26 09:57:46;;;;;;;10.40;5.70;;;;;;;3.45;50.57;99979.19;4997319;28;20060;-63
2024/02/26 10:00:21;;;;;;;10.43;5.32;;;;;;;3.40;50.42;99987.56;5017152;28;20088;-61
2024/02/26 10:02:48;;;;;;;15.70;5.50;;;;;;;3.39;50.07;99972.84;5023181;28;20557;-62
2024/02/26 10:05:20;;;;;;;10.85;5.38;;;;;;;3.42;50.42;99974.31;5013424;28;20099;-62
2024/02/26 10:07:46;;;;;;;10.05;5.43;;;;;;;3.32;50.27;99977.13;5044822;28;20053;-66
2024/02/26 10:10:17;;;;;;;14.13;6.25;;;;;;;3.42;50.50;99974.31;5029212;28;20029;-64
2024/02/26 10:12:43;;;;;;;9.85;5.30;;;;;;;3.66;50.75;99978.50;5027582;28;20091;-64
2024/02/26 10:15:09;;;;;;;15.07;6.03;;;;;;;3.70;50.11;99978.97;5029668;28;20446;-66
2024/02/26 10:17:36;;;;;;;15.13;6.35;;;;;;;3.64;50.54;99970.00;5019297;28;20140;-64
2024/02/26 10:20:17;;;;;;;11.60;5.75;;;;;;;3.58;50.36;99968.91;5009493;28;20046;-63
2024/02/26 10:22:46;;;;;;;9.32;5.80;;;;;;;3.74;49.46;99975.81;5011431;28;20107;-64
2024/02/26 10:25:12;;;;;;;12.32;5.72;;;;;;;3.78;50.49;99968.41;5011434;28;20034;-65
2024/02/26 10:27:37;;;;;;;12.73;6.95;;;;;;;3.76;50.18;99968.56;5011547;28;20049;-65
2024/02/26 10:30:22;;;;;;;14.65;5.95;;;;;;;3.60;50.64;99961.69;5026305;28;20397;-66
2024/02/26 10:32:49;;;;;;;11.88;6.05;;;;;;;3.65;50.03;99971.66;5024131;28;20454;-64
2024/02/26 10:35:15;;;;;;;12.13;6.05;;;;;;;3.62;50.39;99961.53;5030783;28;20042;-64
2024/02/26 10:37:41;;;;;;;10.77;5.50;;;;;;;3.58;50.37;99971.53;5030624;28;20061;-64
2024/02/26 10:40:11;;;;;;;14.60;6.03;;;;;;;3.54;50.81;99961.59;5028935;28;20041;-65
2024/02/26 10:42:38;;;;;;;10.90;5.40;;;;;;;3.39;50.85;99959.75;5011373;28;20050;-62
2024/02/26 10:45:05;;;;;;;10.48;6.28;;;;;;;3.42;50.97;99964.63;5009570;28;20518;-65
2024/02/26 10:47:33;;;;;;;12.02;6.35;;;;;;;3.62;51.89;99949.22;5009794;28;20069;-62
2024/02/26 10:50:12;;;;;;;14.05;6.60;;;;;;;3.73;50.62;99952.38;5015394;28;20044;-64
2024/02/26 10:52:45;;;;;;;10.23;6.25;;;;;;;3.81;50.18;99955.75;5004745;28;20038;-64
2024/02/26 10:55:17;;;;;;;11.80;6.20;;;;;;;3.74;49.80;99954.84;5029741;28;20044;-65
2024/02/26 10:57:45;;;;;;;9.65;6.30;;;;;;;3.83;50.51;99950.34;5032387;28;20045;-64
2024/02/26 11:00:14;;;;;;;9.63;5.20;;;;;;;3.71;50.15;99949.16;5033620;28;20558;-64
2024/02/26 11:02:40;;;;;;;10.93;5.78;;;;;;;3.69;51.07;99956.38;5025256;28;20073;-64
2024/02/26 11:05:06;;;;;;;15.40;5.85;;;;;;;3.86;49.98;99953.41;5035775;28;20090;-64
2024/02/26 11:07:36;;;;;;;10.07;4.97;;;;;;;3.77;49.71;99946.63;5049667;28;20068;-63
2024/02/26 11:10:06;;;;;;;12.95;6.13;;;;;;;3.63;50.46;99952.66;5033557;28;20396;-63
2024/02/26 11:12:35;;;;;;;16.10;7.10;;;;;;;3.61;50.32;99949.38;5032778;28;20522;-61
2024/02/26 11:15:01;;;;;;;11.50;6.40;;;;;;;3.48;50.74;99949.19;5049945;28;20038;-64
2024/02/26 11:17:31;;;;;;;14.60;6.40;;;;;;;3.35;50.68;99941.91;5034290;28;20061;-63
2024/02/26 11:19:58;;;;;;;13.98;6.35;;;;;;;3.23;51.17;99951.19;5034154;28;20052;-63
2024/02/26 11:22:27;;;;;;;12.00;6.07;;;;;;;3.27;51.17;99945.44;5034008;28;20052;-63
2024/02/26 11:24:54;;;;;;;13.23;5.90;;;;;;;3.20;51.44;99947.09;5034377;28;20526;-63
2024/02/26 11:27:25;;;;;;;16.50;7.00;;;;;;;3.13;51.65;99946.19;5033811;28;20550;-64
2024/02/26 11:29:52;;;;;;;12.00;5.85;;;;;;;3.24;51.48;99943.16;5034154;28;20044;-63
2024/02/26 11:32:18;;;;;;;13.98;6.03;;;;;;;3.23;51.43;99941.50;5033845;28;20041;-62